sensor_id;sensor_type;location;lat;lon;timestamp;temperature;humidity
13561;DHT22;6852;51.686;5.314;2022-10-31T00:01:20;14.60;99.90
13561;DHT22;6852;51.686;5.314;2022-10-31T00:03:48;14.60;99.90
13561;DHT22;6852;51.686;5.314;2022-10-31T00:06:15;14.70;99.90
13561;DHT22;6852;51.686;5.314;2022-10-31T00:08:52;14.60;99.90
13561;DHT22;6852;51.686;5.314;2022-10-31T00:11:19;14.60;99.90
13561;DHT22;6852;51.686;5.314;2022-10-31T00:13:46;14.50;99.90
13561;DHT22;6852;51.686;5.314;2022-10-31T00:16:17;14.50;99.90
13561;DHT22;6852;51.686;5.314;2022-10-31T00:18:51;14.50;99.90
13561;DHT22;6852;51.686;5.314;2022-10-31T00:21:18;14.50;99.90
13561;DHT22;6852;51.686;5.314;2022-10-31T00:23:46;14.50;99.90
13561;DHT22;6852;51.686;5.314;2022-10-31T00:26:13;14.60;99.90
13561;DHT22;6852;51.686;5.314;2022-10-31T00:28:41;14.60;99.90
13561;DHT22;6852;51.686;5.314;2022-10-31T00:31:09;14.60;99.90
13561;DHT22;6852;51.686;5.314;2022-10-31T00:33:38;14.60;99.90
13561;DHT22;6852;51.686;5.314;2022-10-31T00:36:06;14.60;99.90
13561;DHT22;6852;51.686;5.314;2022-10-31T00:38:33;14.60;99.90
13561;DHT22;6852;51.686;5.314;2022-10-31T00:41:00;14.60;99.90
13561;DHT22;6852;51.686;5.314;2022-10-31T00:43:27;14.60;99.90
13561;DHT22;6852;51.686;5.314;2022-10-31T00:45:54;14.60;99.90
13561;DHT22;6852;51.686;5.314;2022-10-31T00:48:20;14.50;99.90
13561;DHT22;6852;51.686;5.314;2022-10-31T00:50:47;14.50;99.90
13561;DHT22;6852;51.686;5.314;2022-10-31T00:53:14;14.60;99.90
13561;DHT22;6852;51.686;5.314;2022-10-31T00:55:41;14.50;99.90
13561;DHT22;6852;51.686;5.314;2022-10-31T00:58:08;14.60;99.90
13561;DHT22;6852;51.686;5.314;2022-10-31T01:00:34;14.60;99.90
13561;DHT22;6852;51.686;5.314;2022-10-31T01:03:01;14.60;99.90
13561;DHT22;6852;51.686;5.314;2022-10-31T01:05:28;14.50;99.90
13561;DHT22;6852;51.686;5.314;2022-10-31T01:07:55;14.50;99.90
13561;DHT22;6852;51.686;5.314;2022-10-31T01:10:22;14.50;99.90
13561;DHT22;6852;51.686;5.314;2022-10-31T01:12:49;14.40;99.90
13561;DHT22;6852;51.686;5.314;2022-10-31T01:15:21;14.40;99.90
13561;DHT22;6852;51.686;5.314;2022-10-31T01:17:49;14.40;99.90
13561;DHT22;6852;51.686;5.314;2022-10-31T01:20:16;14.30;99.90
13561;DHT22;6852;51.686;5.314;2022-10-31T01:22:43;14.40;99.90
13561;DHT22;6852;51.686;5.314;2022-10-31T01:25:10;14.20;99.90
13561;DHT22;6852;51.686;5.314;2022-10-31T01:27:37;14.30;99.90
13561;DHT22;6852;51.686;5.314;2022-10-31T01:30:05;14.30;99.90
13561;DHT22;6852;51.686;5.314;2022-10-31T01:32:32;14.30;99.90
13561;DHT22;6852;51.686;5.314;2022-10-31T01:34:58;14.30;99.90
13561;DHT22;6852;51.686;5.314;2022-10-31T01:37:25;14.20;99.90
13561;DHT22;6852;51.686;5.314;2022-10-31T01:39:52;14.30;99.90
13561;DHT22;6852;51.686;5.314;2022-10-31T01:42:21;14.20;99.90
13561;DHT22;6852;51.686;5.314;2022-10-31T01:44:58;14.20;99.90
13561;DHT22;6852;51.686;5.314;2022-10-31T01:47:38;14.10;99.90
13561;DHT22;6852;51.686;5.314;2022-10-31T01:50:14;14.00;99.90
13561;DHT22;6852;51.686;5.314;2022-10-31T01:52:47;14.00;99.90
13561;DHT22;6852;51.686;5.314;2022-10-31T01:55:27;14.10;99.90
13561;DHT22;6852;51.686;5.314;2022-10-31T01:58:02;14.10;99.90
13561;DHT22;6852;51.686;5.314;2022-10-31T02:00:31;14.10;99.90
13561;DHT22;6852;51.686;5.314;2022-10-31T02:02:58;14.00;99.90
13561;DHT22;6852;51.686;5.314;2022-10-31T02:05:28;14.10;99.90
13561;DHT22;6852;51.686;5.314;2022-10-31T02:08:06;14.00;99.90
13561;DHT22;6852;51.686;5.314;2022-10-31T02:10:36;13.90;99.90
13561;DHT22;6852;51.686;5.314;2022-10-31T02:13:06;13.90;99.90
13561;DHT22;6852;51.686;5.314;2022-10-31T02:15:35;13.90;99.90
13561;DHT22;6852;51.686;5.314;2022-10-31T02:18:03;13.90;99.90
13561;DHT22;6852;51.686;5.314;2022-10-31T02:29:17;13.80;99.90
13561;DHT22;6852;51.686;5.314;2022-10-31T02:31:56;13.80;99.90
13561;DHT22;6852;51.686;5.314;2022-10-31T02:45:45;13.60;99.90
13561;DHT22;6852;51.686;5.314;2022-10-31T02:48:19;13.60;99.90
13561;DHT22;6852;51.686;5.314;2022-10-31T02:50:54;13.60;99.90
13561;DHT22;6852;51.686;5.314;2022-10-31T02:53:22;13.60;99.90
13561;DHT22;6852;51.686;5.314;2022-10-31T03:01:20;13.50;99.90
13561;DHT22;6852;51.686;5.314;2022-10-31T03:06:49;13.40;99.90
13561;DHT22;6852;51.686;5.314;2022-10-31T03:09:33;13.30;99.90
13561;DHT22;6852;51.686;5.314;2022-10-31T03:12:07;13.30;99.90
13561;DHT22;6852;51.686;5.314;2022-10-31T03:14:41;13.30;99.90
13561;DHT22;6852;51.686;5.314;2022-10-31T03:17:17;13.30;99.90
13561;DHT22;6852;51.686;5.314;2022-10-31T03:19:48;13.30;99.90
13561;DHT22;6852;51.686;5.314;2022-10-31T03:22:21;13.30;99.90
13561;DHT22;6852;51.686;5.314;2022-10-31T03:24:48;13.20;99.90
13561;DHT22;6852;51.686;5.314;2022-10-31T03:27:20;13.20;99.90
13561;DHT22;6852;51.686;5.314;2022-10-31T03:29:49;13.30;99.90
13561;DHT22;6852;51.686;5.314;2022-10-31T03:32:27;13.20;99.90
13561;DHT22;6852;51.686;5.314;2022-10-31T03:34:58;13.30;99.90
13561;DHT22;6852;51.686;5.314;2022-10-31T03:37:28;13.20;99.90
13561;DHT22;6852;51.686;5.314;2022-10-31T03:39:57;13.20;99.90
13561;DHT22;6852;51.686;5.314;2022-10-31T03:42:27;13.30;99.90
13561;DHT22;6852;51.686;5.314;2022-10-31T03:45:08;13.20;99.90
13561;DHT22;6852;51.686;5.314;2022-10-31T03:47:38;13.10;99.90
13561;DHT22;6852;51.686;5.314;2022-10-31T03:50:08;13.10;99.90
13561;DHT22;6852;51.686;5.314;2022-10-31T03:52:44;13.10;99.90
13561;DHT22;6852;51.686;5.314;2022-10-31T03:55:25;13.10;99.90
13561;DHT22;6852;51.686;5.314;2022-10-31T03:57:57;13.00;99.90
13561;DHT22;6852;51.686;5.314;2022-10-31T04:00:26;13.10;99.90
13561;DHT22;6852;51.686;5.314;2022-10-31T04:03:32;13.10;99.90
13561;DHT22;6852;51.686;5.314;2022-10-31T04:05:53;13.10;99.90
13561;DHT22;6852;51.686;5.314;2022-10-31T04:08:26;13.00;99.90
13561;DHT22;6852;51.686;5.314;2022-10-31T04:10:56;13.00;99.90
13561;DHT22;6852;51.686;5.314;2022-10-31T04:13:29;13.00;99.90
13561;DHT22;6852;51.686;5.314;2022-10-31T04:15:57;13.00;99.90
13561;DHT22;6852;51.686;5.314;2022-10-31T04:18:25;12.90;99.90
13561;DHT22;6852;51.686;5.314;2022-10-31T04:21:04;12.90;99.90
13561;DHT22;6852;51.686;5.314;2022-10-31T04:23:32;12.90;99.90
13561;DHT22;6852;51.686;5.314;2022-10-31T04:25:59;12.90;99.90
13561;DHT22;6852;51.686;5.314;2022-10-31T04:28:26;12.90;99.90
13561;DHT22;6852;51.686;5.314;2022-10-31T04:30:54;12.90;99.90
13561;DHT22;6852;51.686;5.314;2022-10-31T04:33:21;12.80;99.90
13561;DHT22;6852;51.686;5.314;2022-10-31T04:35:47;12.70;99.90
13561;DHT22;6852;51.686;5.314;2022-10-31T04:38:14;12.70;99.90
13561;DHT22;6852;51.686;5.314;2022-10-31T04:40:41;12.70;99.90
13561;DHT22;6852;51.686;5.314;2022-10-31T04:43:08;12.70;99.90
13561;DHT22;6852;51.686;5.314;2022-10-31T04:45:34;12.70;99.90
13561;DHT22;6852;51.686;5.314;2022-10-31T04:48:01;12.70;99.90
13561;DHT22;6852;51.686;5.314;2022-10-31T04:50:28;12.70;99.90
13561;DHT22;6852;51.686;5.314;2022-10-31T04:52:55;12.60;99.90
13561;DHT22;6852;51.686;5.314;2022-10-31T04:55:22;12.70;99.90
13561;DHT22;6852;51.686;5.314;2022-10-31T04:57:49;12.70;99.90
13561;DHT22;6852;51.686;5.314;2022-10-31T05:00:19;12.70;99.90
13561;DHT22;6852;51.686;5.314;2022-10-31T05:02:50;12.70;99.90
13561;DHT22;6852;51.686;5.314;2022-10-31T05:05:20;12.70;99.90
13561;DHT22;6852;51.686;5.314;2022-10-31T05:07:48;12.70;99.90
13561;DHT22;6852;51.686;5.314;2022-10-31T05:10:19;12.70;99.90
13561;DHT22;6852;51.686;5.314;2022-10-31T05:12:54;12.60;99.90
13561;DHT22;6852;51.686;5.314;2022-10-31T05:15:23;12.60;99.90
13561;DHT22;6852;51.686;5.314;2022-10-31T05:17:50;12.50;99.90
13561;DHT22;6852;51.686;5.314;2022-10-31T05:20:19;12.50;99.90
13561;DHT22;6852;51.686;5.314;2022-10-31T05:22:48;12.50;99.90
13561;DHT22;6852;51.686;5.314;2022-10-31T05:25:15;12.50;99.90
13561;DHT22;6852;51.686;5.314;2022-10-31T05:27:44;12.50;99.90
13561;DHT22;6852;51.686;5.314;2022-10-31T05:30:13;12.60;99.90
13561;DHT22;6852;51.686;5.314;2022-10-31T05:32:42;12.60;99.90
13561;DHT22;6852;51.686;5.314;2022-10-31T05:35:13;12.60;99.90
13561;DHT22;6852;51.686;5.314;2022-10-31T05:37:40;12.70;99.90
13561;DHT22;6852;51.686;5.314;2022-10-31T05:40:08;12.70;99.90
13561;DHT22;6852;51.686;5.314;2022-10-31T05:42:37;12.70;99.90
13561;DHT22;6852;51.686;5.314;2022-10-31T05:45:05;12.60;99.90
13561;DHT22;6852;51.686;5.314;2022-10-31T05:47:32;12.70;99.90
13561;DHT22;6852;51.686;5.314;2022-10-31T05:49:58;12.70;99.90
13561;DHT22;6852;51.686;5.314;2022-10-31T05:52:25;12.70;99.90
13561;DHT22;6852;51.686;5.314;2022-10-31T05:54:52;12.70;99.90
13561;DHT22;6852;51.686;5.314;2022-10-31T05:57:19;12.70;99.90
13561;DHT22;6852;51.686;5.314;2022-10-31T05:59:45;12.60;99.90
13561;DHT22;6852;51.686;5.314;2022-10-31T06:02:20;12.70;99.90
13561;DHT22;6852;51.686;5.314;2022-10-31T06:04:47;12.60;99.90
13561;DHT22;6852;51.686;5.314;2022-10-31T06:07:14;12.60;99.90
13561;DHT22;6852;51.686;5.314;2022-10-31T06:09:41;12.60;99.90
13561;DHT22;6852;51.686;5.314;2022-10-31T06:12:07;12.60;99.90
13561;DHT22;6852;51.686;5.314;2022-10-31T06:14:34;12.60;99.90
13561;DHT22;6852;51.686;5.314;2022-10-31T06:17:01;12.60;99.90
13561;DHT22;6852;51.686;5.314;2022-10-31T06:19:28;12.60;99.90
13561;DHT22;6852;51.686;5.314;2022-10-31T06:21:54;12.60;99.90
13561;DHT22;6852;51.686;5.314;2022-10-31T06:24:21;12.60;99.90
13561;DHT22;6852;51.686;5.314;2022-10-31T06:26:48;12.60;99.90
13561;DHT22;6852;51.686;5.314;2022-10-31T06:29:14;12.50;99.90
13561;DHT22;6852;51.686;5.314;2022-10-31T06:31:41;12.50;99.90
13561;DHT22;6852;51.686;5.314;2022-10-31T06:34:08;12.50;99.90
13561;DHT22;6852;51.686;5.314;2022-10-31T06:36:35;12.50;99.90
13561;DHT22;6852;51.686;5.314;2022-10-31T06:39:01;12.50;99.90
13561;DHT22;6852;51.686;5.314;2022-10-31T06:41:28;12.50;99.90
13561;DHT22;6852;51.686;5.314;2022-10-31T06:43:55;12.50;99.90
13561;DHT22;6852;51.686;5.314;2022-10-31T06:46:21;12.50;99.90
13561;DHT22;6852;51.686;5.314;2022-10-31T06:48:48;12.60;99.90
13561;DHT22;6852;51.686;5.314;2022-10-31T06:51:15;12.60;99.90
13561;DHT22;6852;51.686;5.314;2022-10-31T06:53:42;12.60;99.90
13561;DHT22;6852;51.686;5.314;2022-10-31T06:56:08;12.60;99.90
13561;DHT22;6852;51.686;5.314;2022-10-31T06:58:35;12.60;99.90
13561;DHT22;6852;51.686;5.314;2022-10-31T07:01:02;12.60;99.90
13561;DHT22;6852;51.686;5.314;2022-10-31T07:03:29;12.70;99.90
13561;DHT22;6852;51.686;5.314;2022-10-31T07:05:56;12.70;99.90
13561;DHT22;6852;51.686;5.314;2022-10-31T07:08:24;12.70;99.90
13561;DHT22;6852;51.686;5.314;2022-10-31T07:10:52;12.70;99.90
13561;DHT22;6852;51.686;5.314;2022-10-31T07:13:20;12.70;99.90
13561;DHT22;6852;51.686;5.314;2022-10-31T07:16:00;12.70;99.90
13561;DHT22;6852;51.686;5.314;2022-10-31T07:18:27;12.80;99.90
13561;DHT22;6852;51.686;5.314;2022-10-31T07:20:54;12.80;99.90
13561;DHT22;6852;51.686;5.314;2022-10-31T07:23:21;12.80;99.90
13561;DHT22;6852;51.686;5.314;2022-10-31T07:25:48;12.90;99.90
13561;DHT22;6852;51.686;5.314;2022-10-31T07:28:15;13.00;99.90
13561;DHT22;6852;51.686;5.314;2022-10-31T07:30:41;13.00;99.90
13561;DHT22;6852;51.686;5.314;2022-10-31T07:33:08;13.10;99.90
13561;DHT22;6852;51.686;5.314;2022-10-31T07:35:35;13.20;99.90
13561;DHT22;6852;51.686;5.314;2022-10-31T07:38:13;13.30;99.90
13561;DHT22;6852;51.686;5.314;2022-10-31T07:40:41;13.40;99.90
13561;DHT22;6852;51.686;5.314;2022-10-31T07:43:10;13.60;99.90
13561;DHT22;6852;51.686;5.314;2022-10-31T07:45:40;13.70;99.90
13561;DHT22;6852;51.686;5.314;2022-10-31T07:48:07;13.80;99.90
13561;DHT22;6852;51.686;5.314;2022-10-31T07:50:34;13.90;99.90
13561;DHT22;6852;51.686;5.314;2022-10-31T07:53:10;13.80;99.90
13561;DHT22;6852;51.686;5.314;2022-10-31T07:55:38;13.90;99.90
13561;DHT22;6852;51.686;5.314;2022-10-31T07:58:10;13.90;99.90
13561;DHT22;6852;51.686;5.314;2022-10-31T08:00:38;14.10;99.90
13561;DHT22;6852;51.686;5.314;2022-10-31T08:03:08;14.10;99.90
13561;DHT22;6852;51.686;5.314;2022-10-31T08:05:35;14.10;99.90
13561;DHT22;6852;51.686;5.314;2022-10-31T08:08:06;14.20;99.90
13561;DHT22;6852;51.686;5.314;2022-10-31T08:10:34;14.30;99.90
13561;DHT22;6852;51.686;5.314;2022-10-31T08:15:29;14.30;99.90
13561;DHT22;6852;51.686;5.314;2022-10-31T08:17:56;14.40;99.90
13561;DHT22;6852;51.686;5.314;2022-10-31T08:20:23;14.50;99.90
13561;DHT22;6852;51.686;5.314;2022-10-31T08:22:59;14.70;99.90
13561;DHT22;6852;51.686;5.314;2022-10-31T08:25:27;14.80;99.90
13561;DHT22;6852;51.686;5.314;2022-10-31T08:27:59;14.90;99.90
13561;DHT22;6852;51.686;5.314;2022-10-31T08:30:29;14.90;99.90
13561;DHT22;6852;51.686;5.314;2022-10-31T08:33:13;15.10;99.90
13561;DHT22;6852;51.686;5.314;2022-10-31T08:35:40;15.20;99.90
13561;DHT22;6852;51.686;5.314;2022-10-31T08:38:09;15.20;99.90
13561;DHT22;6852;51.686;5.314;2022-10-31T08:40:37;15.10;99.90
13561;DHT22;6852;51.686;5.314;2022-10-31T08:43:06;15.10;99.90
13561;DHT22;6852;51.686;5.314;2022-10-31T08:45:34;15.10;99.90
13561;DHT22;6852;51.686;5.314;2022-10-31T08:48:05;15.10;99.90
13561;DHT22;6852;51.686;5.314;2022-10-31T08:50:34;15.00;99.90
13561;DHT22;6852;51.686;5.314;2022-10-31T08:53:06;15.00;99.90
13561;DHT22;6852;51.686;5.314;2022-10-31T08:55:37;15.00;99.90
13561;DHT22;6852;51.686;5.314;2022-10-31T08:58:05;15.00;99.90
13561;DHT22;6852;51.686;5.314;2022-10-31T09:00:34;15.20;99.90
13561;DHT22;6852;51.686;5.314;2022-10-31T09:03:04;15.10;99.90
13561;DHT22;6852;51.686;5.314;2022-10-31T09:05:31;15.20;99.90
13561;DHT22;6852;51.686;5.314;2022-10-31T09:08:00;15.20;99.90
13561;DHT22;6852;51.686;5.314;2022-10-31T09:10:28;15.20;99.90
13561;DHT22;6852;51.686;5.314;2022-10-31T09:13:10;15.10;99.90
13561;DHT22;6852;51.686;5.314;2022-10-31T09:15:38;15.10;99.90
13561;DHT22;6852;51.686;5.314;2022-10-31T09:18:06;15.20;99.90
13561;DHT22;6852;51.686;5.314;2022-10-31T09:20:35;15.10;99.90
13561;DHT22;6852;51.686;5.314;2022-10-31T09:23:05;15.20;99.90
13561;DHT22;6852;51.686;5.314;2022-10-31T09:25:33;15.20;99.90
13561;DHT22;6852;51.686;5.314;2022-10-31T09:28:01;15.30;99.90
13561;DHT22;6852;51.686;5.314;2022-10-31T09:30:31;15.20;99.90
13561;DHT22;6852;51.686;5.314;2022-10-31T09:33:00;15.20;99.90
13561;DHT22;6852;51.686;5.314;2022-10-31T09:35:27;15.10;99.90
13561;DHT22;6852;51.686;5.314;2022-10-31T09:38:02;15.30;99.90
13561;DHT22;6852;51.686;5.314;2022-10-31T09:40:39;15.40;99.90
13561;DHT22;6852;51.686;5.314;2022-10-31T09:49:24;15.70;99.90
13561;DHT22;6852;51.686;5.314;2022-10-31T09:52:13;15.80;99.90
13561;DHT22;6852;51.686;5.314;2022-10-31T09:54:59;15.90;99.90
13561;DHT22;6852;51.686;5.314;2022-10-31T09:57:35;15.90;99.90
13561;DHT22;6852;51.686;5.314;2022-10-31T10:00:06;15.90;99.90
13561;DHT22;6852;51.686;5.314;2022-10-31T10:02:40;15.90;99.90
13561;DHT22;6852;51.686;5.314;2022-10-31T10:05:13;15.80;99.90
13561;DHT22;6852;51.686;5.314;2022-10-31T10:10:34;15.80;68.30
13561;DHT22;6852;51.686;5.314;2022-10-31T10:30:57;16.00;99.90
13561;DHT22;6852;51.686;5.314;2022-10-31T10:33:55;15.90;99.90
13561;DHT22;6852;51.686;5.314;2022-10-31T10:36:41;16.00;99.90
13561;DHT22;6852;51.686;5.314;2022-10-31T10:39:20;15.90;99.90
13561;DHT22;6852;51.686;5.314;2022-10-31T10:41:49;15.90;99.90
13561;DHT22;6852;51.686;5.314;2022-10-31T10:44:45;15.90;99.90
13561;DHT22;6852;51.686;5.314;2022-10-31T10:47:44;16.00;99.90
13561;DHT22;6852;51.686;5.314;2022-10-31T10:50:23;16.10;99.90
13561;DHT22;6852;51.686;5.314;2022-10-31T10:53:01;16.10;99.90
13561;DHT22;6852;51.686;5.314;2022-10-31T10:55:45;16.10;99.90
13561;DHT22;6852;51.686;5.314;2022-10-31T10:58:14;16.00;99.90
13561;DHT22;6852;51.686;5.314;2022-10-31T11:00:43;16.10;99.90
13561;DHT22;6852;51.686;5.314;2022-10-31T11:03:17;16.10;99.90
13561;DHT22;6852;51.686;5.314;2022-10-31T11:05:53;16.10;99.90
13561;DHT22;6852;51.686;5.314;2022-10-31T11:08:46;16.20;99.90
13561;DHT22;6852;51.686;5.314;2022-10-31T11:11:23;16.20;99.90
13561;DHT22;6852;51.686;5.314;2022-10-31T11:13:57;16.00;99.90
13561;DHT22;6852;51.686;5.314;2022-10-31T11:16:28;16.10;99.90
13561;DHT22;6852;51.686;5.314;2022-10-31T11:19:26;16.20;99.90
13561;DHT22;6852;51.686;5.314;2022-10-31T11:21:53;16.30;99.90
13561;DHT22;6852;51.686;5.314;2022-10-31T11:24:24;16.30;99.90
13561;DHT22;6852;51.686;5.314;2022-10-31T11:27:19;16.50;99.90
13561;DHT22;6852;51.686;5.314;2022-10-31T11:29:46;16.50;99.90
13561;DHT22;6852;51.686;5.314;2022-10-31T11:32:22;16.60;99.90
13561;DHT22;6852;51.686;5.314;2022-10-31T11:34:52;16.50;99.90
13561;DHT22;6852;51.686;5.314;2022-10-31T11:37:25;16.60;99.90
13561;DHT22;6852;51.686;5.314;2022-10-31T11:39:58;16.50;99.90
13561;DHT22;6852;51.686;5.314;2022-10-31T11:42:29;16.40;99.90
13561;DHT22;6852;51.686;5.314;2022-10-31T11:44:57;16.50;99.90
13561;DHT22;6852;51.686;5.314;2022-10-31T11:47:27;16.40;99.90
13561;DHT22;6852;51.686;5.314;2022-10-31T11:49:55;16.40;99.90
13561;DHT22;6852;51.686;5.314;2022-10-31T11:52:27;16.60;99.90
13561;DHT22;6852;51.686;5.314;2022-10-31T11:59:59;16.60;99.90
13561;DHT22;6852;51.686;5.314;2022-10-31T12:02:27;16.60;99.90
13561;DHT22;6852;51.686;5.314;2022-10-31T12:05:26;16.60;99.90
13561;DHT22;6852;51.686;5.314;2022-10-31T12:07:59;16.70;99.90
13561;DHT22;6852;51.686;5.314;2022-10-31T12:10:42;16.70;99.90
13561;DHT22;6852;51.686;5.314;2022-10-31T12:13:33;16.80;99.90
13561;DHT22;6852;51.686;5.314;2022-10-31T12:16:28;16.90;99.90
13561;DHT22;6852;51.686;5.314;2022-10-31T12:19:35;17.00;99.90
13561;DHT22;6852;51.686;5.314;2022-10-31T12:24:22;17.20;1.00
13561;DHT22;6852;51.686;5.314;2022-10-31T12:44:59;17.20;1.00
13561;DHT22;6852;51.686;5.314;2022-10-31T12:47:27;17.20;1.00
13561;DHT22;6852;51.686;5.314;2022-10-31T12:58:26;17.50;1.00
13561;DHT22;6852;51.686;5.314;2022-10-31T13:03:38;17.50;1.00
13561;DHT22;6852;51.686;5.314;2022-10-31T13:06:13;17.40;1.00
13561;DHT22;6852;51.686;5.314;2022-10-31T13:08:55;17.40;99.90
13561;DHT22;6852;51.686;5.314;2022-10-31T13:11:26;17.40;1.00
13561;DHT22;6852;51.686;5.314;2022-10-31T13:16:45;17.50;99.90
13561;DHT22;6852;51.686;5.314;2022-10-31T13:19:36;17.60;1.00
13561;DHT22;6852;51.686;5.314;2022-10-31T13:22:09;17.60;1.00
13561;DHT22;6852;51.686;5.314;2022-10-31T13:27:24;17.60;1.00
13561;DHT22;6852;51.686;5.314;2022-10-31T13:32:58;17.70;99.90
13561;DHT22;6852;51.686;5.314;2022-10-31T13:44:00;17.90;1.00
13561;DHT22;6852;51.686;5.314;2022-10-31T13:46:38;17.80;1.00
13561;DHT22;6852;51.686;5.314;2022-10-31T13:54:46;17.90;99.90
13561;DHT22;6852;51.686;5.314;2022-10-31T13:57:43;17.80;99.90
13561;DHT22;6852;51.686;5.314;2022-10-31T14:02:48;17.80;1.00
13561;DHT22;6852;51.686;5.314;2022-10-31T14:05:29;17.80;1.00
13561;DHT22;6852;51.686;5.314;2022-10-31T14:08:00;17.90;93.70
13561;DHT22;6852;51.686;5.314;2022-10-31T14:10:39;17.80;1.00
13561;DHT22;6852;51.686;5.314;2022-10-31T14:16:28;17.70;1.00
13561;DHT22;6852;51.686;5.314;2022-10-31T14:19:01;17.70;1.00
13561;DHT22;6852;51.686;5.314;2022-10-31T14:21:31;17.70;1.00
13561;DHT22;6852;51.686;5.314;2022-10-31T14:26:55;17.60;1.00
13561;DHT22;6852;51.686;5.314;2022-10-31T14:29:28;17.50;1.00
13561;DHT22;6852;51.686;5.314;2022-10-31T14:34:50;17.40;1.00
13561;DHT22;6852;51.686;5.314;2022-10-31T14:40:27;17.40;99.90
13561;DHT22;6852;51.686;5.314;2022-10-31T14:46:02;17.30;1.00
13561;DHT22;6852;51.686;5.314;2022-10-31T14:51:33;17.30;1.00
13561;DHT22;6852;51.686;5.314;2022-10-31T14:54:02;17.30;1.00
13561;DHT22;6852;51.686;5.314;2022-10-31T14:56:34;17.30;1.00
13561;DHT22;6852;51.686;5.314;2022-10-31T14:59:08;17.20;1.00
13561;DHT22;6852;51.686;5.314;2022-10-31T15:01:36;17.20;1.00
13561;DHT22;6852;51.686;5.314;2022-10-31T15:04:14;17.20;99.90
13561;DHT22;6852;51.686;5.314;2022-10-31T15:06:54;17.20;99.90
13561;DHT22;6852;51.686;5.314;2022-10-31T15:09:29;17.20;99.90
13561;DHT22;6852;51.686;5.314;2022-10-31T15:12:16;17.20;99.90
13561;DHT22;6852;51.686;5.314;2022-10-31T15:14:45;17.20;99.90
13561;DHT22;6852;51.686;5.314;2022-10-31T15:17:12;17.20;1.00
13561;DHT22;6852;51.686;5.314;2022-10-31T15:19:39;17.30;1.00
13561;DHT22;6852;51.686;5.314;2022-10-31T15:22:12;17.40;1.00
13561;DHT22;6852;51.686;5.314;2022-10-31T15:24:41;17.40;99.90
13561;DHT22;6852;51.686;5.314;2022-10-31T15:27:18;17.50;99.90
13561;DHT22;6852;51.686;5.314;2022-10-31T15:29:49;17.50;99.90
13561;DHT22;6852;51.686;5.314;2022-10-31T15:32:28;17.40;99.90
13561;DHT22;6852;51.686;5.314;2022-10-31T15:34:56;17.30;99.90
13561;DHT22;6852;51.686;5.314;2022-10-31T15:37:25;17.30;99.90
13561;DHT22;6852;51.686;5.314;2022-10-31T15:39:53;17.30;1.00
13561;DHT22;6852;51.686;5.314;2022-10-31T15:44:50;17.20;1.00
13561;DHT22;6852;51.686;5.314;2022-10-31T15:47:20;17.20;1.00
13561;DHT22;6852;51.686;5.314;2022-10-31T15:49:54;17.20;99.90
13561;DHT22;6852;51.686;5.314;2022-10-31T15:52:34;17.10;1.00
13561;DHT22;6852;51.686;5.314;2022-10-31T15:57:41;17.00;1.00
13561;DHT22;6852;51.686;5.314;2022-10-31T16:00:33;16.90;1.00
13561;DHT22;6852;51.686;5.314;2022-10-31T16:05:47;16.90;1.00
13561;DHT22;6852;51.686;5.314;2022-10-31T16:10:56;16.80;1.00
13561;DHT22;6852;51.686;5.314;2022-10-31T16:13:31;16.80;1.00
13561;DHT22;6852;51.686;5.314;2022-10-31T16:16:13;16.80;36.40
13561;DHT22;6852;51.686;5.314;2022-10-31T16:19:02;16.70;99.90
13561;DHT22;6852;51.686;5.314;2022-10-31T16:21:35;16.70;99.90
13561;DHT22;6852;51.686;5.314;2022-10-31T16:24:28;16.60;1.00
13561;DHT22;6852;51.686;5.314;2022-10-31T16:26:54;16.60;1.00
13561;DHT22;6852;51.686;5.314;2022-10-31T16:30:02;16.50;1.00
13561;DHT22;6852;51.686;5.314;2022-10-31T16:37:41;16.40;99.90
13561;DHT22;6852;51.686;5.314;2022-10-31T16:40:10;16.30;1.00
13561;DHT22;6852;51.686;5.314;2022-10-31T16:42:37;16.30;1.00
13561;DHT22;6852;51.686;5.314;2022-10-31T16:45:06;16.30;1.00
13561;DHT22;6852;51.686;5.314;2022-10-31T16:47:33;16.20;1.00
13561;DHT22;6852;51.686;5.314;2022-10-31T16:50:00;16.20;1.00
13561;DHT22;6852;51.686;5.314;2022-10-31T16:52:27;16.20;1.00
13561;DHT22;6852;51.686;5.314;2022-10-31T16:55:11;16.20;1.00
13561;DHT22;6852;51.686;5.314;2022-10-31T16:57:38;16.10;1.00
13561;DHT22;6852;51.686;5.314;2022-10-31T17:00:08;16.20;99.90
13561;DHT22;6852;51.686;5.314;2022-10-31T17:02:38;16.20;99.90
13561;DHT22;6852;51.686;5.314;2022-10-31T17:05:08;16.20;99.90
13561;DHT22;6852;51.686;5.314;2022-10-31T17:07:35;16.10;71.30
13561;DHT22;6852;51.686;5.314;2022-10-31T17:10:02;16.10;1.00
13561;DHT22;6852;51.686;5.314;2022-10-31T17:12:28;16.10;1.00
13561;DHT22;6852;51.686;5.314;2022-10-31T17:14:55;16.00;1.00
13561;DHT22;6852;51.686;5.314;2022-10-31T17:17:22;16.00;1.00
13561;DHT22;6852;51.686;5.314;2022-10-31T17:19:49;15.90;1.00
13561;DHT22;6852;51.686;5.314;2022-10-31T17:22:16;15.90;1.00
13561;DHT22;6852;51.686;5.314;2022-10-31T17:24:43;15.80;1.00
13561;DHT22;6852;51.686;5.314;2022-10-31T17:27:10;15.80;1.00
13561;DHT22;6852;51.686;5.314;2022-10-31T17:29:37;15.90;1.00
13561;DHT22;6852;51.686;5.314;2022-10-31T17:32:04;15.80;99.90
13561;DHT22;6852;51.686;5.314;2022-10-31T17:34:31;15.70;1.00
13561;DHT22;6852;51.686;5.314;2022-10-31T17:36:57;15.70;99.90
13561;DHT22;6852;51.686;5.314;2022-10-31T17:39:25;15.60;1.00
13561;DHT22;6852;51.686;5.314;2022-10-31T17:41:52;15.60;1.00
13561;DHT22;6852;51.686;5.314;2022-10-31T17:44:18;15.60;1.00
13561;DHT22;6852;51.686;5.314;2022-10-31T17:46:45;15.60;21.20
13561;DHT22;6852;51.686;5.314;2022-10-31T17:49:12;15.60;1.00
13561;DHT22;6852;51.686;5.314;2022-10-31T17:51:39;15.60;1.00
13561;DHT22;6852;51.686;5.314;2022-10-31T17:54:06;15.60;99.90
13561;DHT22;6852;51.686;5.314;2022-10-31T17:56:34;15.60;1.00
13561;DHT22;6852;51.686;5.314;2022-10-31T17:59:01;15.60;1.00
13561;DHT22;6852;51.686;5.314;2022-10-31T18:01:28;15.70;1.00
13561;DHT22;6852;51.686;5.314;2022-10-31T18:03:56;15.70;99.90
13561;DHT22;6852;51.686;5.314;2022-10-31T18:06:22;15.70;9.30
13561;DHT22;6852;51.686;5.314;2022-10-31T18:08:49;15.70;10.50
13561;DHT22;6852;51.686;5.314;2022-10-31T18:11:19;15.70;99.90
13561;DHT22;6852;51.686;5.314;2022-10-31T18:13:46;15.60;1.00
13561;DHT22;6852;51.686;5.314;2022-10-31T18:16:15;15.70;1.00
13561;DHT22;6852;51.686;5.314;2022-10-31T18:18:42;15.60;1.00
13561;DHT22;6852;51.686;5.314;2022-10-31T18:21:09;15.60;1.00
13561;DHT22;6852;51.686;5.314;2022-10-31T18:23:36;15.50;99.90
13561;DHT22;6852;51.686;5.314;2022-10-31T18:26:03;15.60;99.90
13561;DHT22;6852;51.686;5.314;2022-10-31T18:28:30;15.60;1.00
13561;DHT22;6852;51.686;5.314;2022-10-31T18:30:58;15.50;93.20
13561;DHT22;6852;51.686;5.314;2022-10-31T18:33:26;15.60;1.00
13561;DHT22;6852;51.686;5.314;2022-10-31T18:35:53;15.60;1.00
13561;DHT22;6852;51.686;5.314;2022-10-31T18:38:22;15.60;99.90
13561;DHT22;6852;51.686;5.314;2022-10-31T18:40:50;15.50;1.00
13561;DHT22;6852;51.686;5.314;2022-10-31T18:43:17;15.40;1.00
13561;DHT22;6852;51.686;5.314;2022-10-31T18:45:44;15.50;1.00
13561;DHT22;6852;51.686;5.314;2022-10-31T18:48:16;15.50;1.00